Terminal Aerodrome Forecast
Issued by NWS

Home | Current Version | Previous Version | Text Only | Print | Product List | Glossary On
Versions: 1 2 3 4 5 6 7 8 9 10 11 12 13 14 15 16 17 18 19 20 21 22 23 24 25 26 27 28 29 30 31 32 33 34 35 36 37
000
FTUS46 KLOX 310803 AAQ
TAFLGB
TAF AMD
KLGB 310803Z 3108/0106 VRB03KT 1SM BR OVC001
      TEMPO 3108/3112 1/4SM FG VV001
     FM311500 VRB05KT 3SM HZ SCT004
     FM311800 18006KT P6SM SKC
     FM312300 30006KT P6SM SKC
     FM010400 VRB03KT P6SM SKC=

USA.gov is the U.S. government's official web portal to all federal, state and local government web resources and services.